Mountain Village, Alaska
Current Conditions -  °F | °C
As of 7:56 PM on Sunday 19 Oct 2014 (Local Time) from PAMO Reporting Station
Overcast Overcast  
Wind Chill: 27°   Ceiling: 2100
Heat Index: 27°   Visibility: 10mi
Dew Point: 25°   Wind: 0mph
Humidity: 92%   Direction: NA
Pressure: 29.35"   Gusts: NA
Location:  62.09°N, 163.73°W
Report Text: PAMO 200356Z AUTO 00000KT 10SM OVC021 M03/M04 A2935 RMK AO2 TSNO T10271038 UPB0259E49 P0000 SLP826 $
Loading
Personal Weather Stations






























Interactive Weather Map
Tropical Storm Tracking
New forecast layout! Learn more

10-Day Weather Forecast

Advertisements
Track Severe Weather on mobile